Time;durP1;ratioP1;P1;durP2;ratioP2;P2;SDS_P1;SDS_P2;PMS_P1;PMS_P2;Temp;Humidity;BMP_temperature;BMP_pressure;BME280_temperature;BME280_humidity;BME280_pressure;Samples;Min_cycle;Max_cycle;Signal;HPM_P1;HPM_P2
2022/02/26 00:02:19;;;;;;;14.23;7.07;;;;;;;-0.22;75.62;96014.13;1750930;82;21513;-68
2022/02/26 00:04:46;;;;;;;10.87;6.37;;;;;;;-0.31;75.99;96022.92;1750976;82;21444;-69
2022/02/26 00:07:13;;;;;;;12.67;6.67;;;;;;;-0.46;76.32;96025.50;1750976;81;21551;-69
2022/02/26 00:09:40;;;;;;;14.57;7.03;;;;;;;-0.48;76.20;96011.64;1750951;82;21081;-69
2022/02/26 00:12:07;;;;;;;10.83;5.67;;;;;;;-0.50;75.93;96015.89;1750954;82;20982;-68
2022/02/26 00:14:34;;;;;;;9.13;5.60;;;;;;;-0.52;76.13;96016.67;1750868;82;21010;-68
2022/02/26 00:17:00;;;;;;;13.70;6.50;;;;;;;-0.54;75.54;96019.20;1750921;82;21619;-68
2022/02/26 00:19:27;;;;;;;12.90;6.70;;;;;;;-0.57;75.33;96011.77;1751027;81;20966;-68
2022/02/26 00:21:54;;;;;;;11.27;6.50;;;;;;;-0.55;75.49;96017.46;1750919;82;21013;-68
2022/02/26 00:24:21;;;;;;;13.17;6.67;;;;;;;-0.50;75.74;96012.42;1751076;82;20998;-68
2022/02/26 00:26:47;;;;;;;14.03;7.97;;;;;;;-0.50;75.26;96015.89;1751102;81;21048;-68
2022/02/26 00:29:14;;;;;;;14.57;7.40;;;;;;;-0.57;76.23;96016.53;1750745;82;21467;-68
2022/02/26 00:31:40;;;;;;;21.87;7.70;;;;;;;-0.62;75.66;96019.39;1751130;82;20993;-68
2022/02/26 00:34:08;;;;;;;15.33;6.47;;;;;;;-0.72;75.68;96018.22;1751180;82;21002;-68
2022/02/26 00:36:34;;;;;;;13.77;7.57;;;;;;;-0.78;75.78;96026.20;1751014;82;21053;-68
2022/02/26 00:39:01;;;;;;;10.30;5.97;;;;;;;-0.87;76.47;96028.97;1751068;82;21036;-68
2022/02/26 00:41:27;;;;;;;13.17;6.47;;;;;;;-0.93;76.23;96029.22;1751007;82;21050;-69
2022/02/26 00:43:54;;;;;;;17.67;8.63;;;;;;;-0.90;76.41;96028.89;1751188;81;21002;-69
2022/02/26 00:46:21;;;;;;;11.27;6.47;;;;;;;-0.89;76.15;96035.81;1753544;81;21053;-69
2022/02/26 00:51:33;;;;;;;23.73;11.60;;;;;;;-1.05;76.24;96042.63;1753862;82;21077;-68
2022/02/26 00:53:59;;;;;;;16.40;9.10;;;;;;;-1.08;77.17;96039.95;1753841;81;21053;-68
2022/02/26 00:56:26;;;;;;;17.67;7.90;;;;;;;-1.13;76.87;96041.50;1753593;82;21069;-68
2022/02/26 00:58:53;;;;;;;20.43;10.53;;;;;;;-1.02;77.12;96037.97;1753674;82;21018;-68
2022/02/26 01:01:20;;;;;;;20.03;9.93;;;;;;;-0.97;76.96;96042.46;1753817;82;21448;-68
2022/02/26 01:03:47;;;;;;;25.40;12.30;;;;;;;-0.97;76.65;96043.76;1753731;82;21501;-68
2022/02/26 01:06:14;;;;;;;19.63;9.90;;;;;;;-1.03;76.42;96051.34;1753793;82;21057;-68
2022/02/26 01:08:41;;;;;;;20.43;10.57;;;;;;;-1.01;76.92;96052.66;1753713;82;20974;-68
2022/02/26 01:11:08;;;;;;;23.20;11.60;;;;;;;-1.05;76.53;96050.41;1753621;82;21092;-68
2022/02/26 01:13:34;;;;;;;22.23;10.33;;;;;;;-1.09;77.40;96053.28;1753763;82;21432;-68
2022/02/26 01:16:01;;;;;;;29.63;14.23;;;;;;;-1.14;78.15;96048.79;1753694;82;21109;-68
2022/02/26 01:18:28;;;;;;;25.80;14.73;;;;;;;-1.14;78.89;96046.20;1753670;82;21037;-69
2022/02/26 01:20:54;;;;;;;29.23;13.67;;;;;;;-1.16;78.33;96046.17;1753822;82;20978;-69
2022/02/26 01:23:21;;;;;;;23.93;12.37;;;;;;;-1.11;78.50;96047.20;1753732;82;21002;-69
2022/02/26 01:25:48;;;;;;;26.00;14.37;;;;;;;-1.14;78.14;96040.59;1753816;81;21021;-68
2022/02/26 01:28:15;;;;;;;23.10;12.67;;;;;;;-1.14;77.53;96044.91;1753732;82;21017;-68
2022/02/26 01:30:42;;;;;;;21.03;11.63;;;;;;;-1.07;77.67;96043.41;1753741;82;21060;-69
2022/02/26 01:33:08;;;;;;;22.40;12.43;;;;;;;-1.02;78.36;96049.20;1753794;82;21013;-68
2022/02/26 01:35:35;;;;;;;20.73;10.07;;;;;;;-1.01;78.82;96049.66;1753782;82;20982;-68
2022/02/26 01:38:01;;;;;;;20.77;11.13;;;;;;;-1.03;78.54;96053.02;1753722;82;21013;-68
2022/02/26 01:40:29;;;;;;;16.33;8.90;;;;;;;-1.11;78.25;96052.38;1753739;82;20993;-68
2022/02/26 01:42:55;;;;;;;18.83;8.93;;;;;;;-1.14;78.35;96053.55;1753591;82;21049;-68
2022/02/26 01:45:24;;;;;;;19.40;8.87;;;;;;;-1.08;78.41;96060.67;1757687;81;21490;-68
2022/02/26 01:47:50;;;;;;;16.80;8.90;;;;;;;-1.02;78.65;96070.34;1765160;81;21550;-68
2022/02/26 01:50:17;;;;;;;20.23;9.87;;;;;;;-1.02;78.95;96065.16;1764810;81;21020;-68
2022/02/26 01:52:43;;;;;;;14.77;9.10;;;;;;;-0.89;79.01;96061.72;1765077;81;21076;-68
2022/02/26 01:55:11;;;;;;;14.53;7.80;;;;;;;-0.89;78.35;96059.55;1765153;81;20969;-68
2022/02/26 01:57:38;;;;;;;14.40;8.27;;;;;;;-0.89;78.74;96067.32;1764511;81;21585;-68
2022/02/26 02:00:09;;;;;;;12.07;7.40;;;;;;;-0.84;78.44;96059.70;1764929;81;21016;-69
2022/02/26 02:02:36;;;;;;;29.90;13.47;;;;;;;-0.81;78.28;96054.62;1764977;81;21039;-68
2022/02/26 02:05:04;;;;;;;16.90;8.67;;;;;;;-0.85;78.23;96056.66;1742727;82;21057;-68
2022/02/26 02:07:30;;;;;;;14.90;7.50;;;;;;;-0.81;79.18;96059.80;1764631;81;21010;-68
2022/02/26 02:09:57;;;;;;;14.43;8.17;;;;;;;-0.75;78.60;96057.42;1734571;82;21038;-68
2022/02/26 02:12:25;;;;;;;14.00;7.50;;;;;;;-0.73;78.29;96048.87;1732721;83;21576;-69
2022/02/26 02:14:51;;;;;;;17.90;8.50;;;;;;;-0.72;78.25;96045.43;1734470;83;21484;-68
2022/02/26 02:17:21;;;;;;;12.87;7.70;;;;;;;-0.77;79.00;96055.19;1732952;83;21118;-68
2022/02/26 02:19:46;;;;;;;14.20;9.43;;;;;;;-0.73;78.52;96052.75;1734331;83;21007;-69
2022/02/26 02:22:19;;;;;;;17.00;9.47;;;;;;;-0.69;78.62;96059.77;1706123;83;21051;-68
2022/02/26 02:24:46;;;;;;;13.43;6.77;;;;;;;-0.64;78.70;96061.64;1734437;83;20987;-68
2022/02/26 02:27:13;;;;;;;12.63;8.10;;;;;;;-0.62;78.14;96071.65;1732680;83;21035;-68
2022/02/26 02:29:40;;;;;;;21.40;9.00;;;;;;;-0.67;79.30;96076.68;1734411;83;21086;-68
2022/02/26 02:32:08;;;;;;;18.17;9.17;;;;;;;-0.56;79.42;96075.72;1732960;83;21011;-68
2022/02/26 02:34:34;;;;;;;11.00;7.30;;;;;;;-0.58;79.03;96069.21;1734339;83;21030;-68
2022/02/26 02:37:02;;;;;;;13.93;7.50;;;;;;;-0.55;78.43;96074.48;1732900;83;21019;-68
2022/02/26 02:39:29;;;;;;;12.40;6.97;;;;;;;-0.55;78.12;96078.38;1734521;82;21010;-68
2022/02/26 02:41:55;;;;;;;12.37;6.97;;;;;;;-0.56;78.23;96073.13;1732783;83;20983;-68
2022/02/26 02:44:22;;;;;;;12.50;7.67;;;;;;;-0.56;78.36;96074.00;1734476;83;21038;-68
2022/02/26 02:46:48;;;;;;;15.70;8.00;;;;;;;-0.46;78.34;96074.75;1728236;83;21517;-68
2022/02/26 02:49:15;;;;;;;21.87;10.70;;;;;;;-0.52;78.79;96071.98;1721132;83;21026;-68
2022/02/26 02:51:41;;;;;;;24.93;12.43;;;;;;;-0.49;78.74;96072.49;1737889;82;21508;-69
2022/02/26 02:54:08;;;;;;;22.27;13.30;;;;;;;-0.48;78.43;96079.42;1737797;82;21006;-69
2022/02/26 02:56:35;;;;;;;17.70;8.77;;;;;;;-0.48;78.41;96074.23;1737728;82;21034;-69
2022/02/26 02:59:02;;;;;;;17.97;10.00;;;;;;;-0.50;77.97;96077.23;1737783;82;21026;-68
2022/02/26 03:01:30;;;;;;;25.07;13.40;;;;;;;-0.52;78.21;96081.47;1737891;82;21535;-69
2022/02/26 03:03:56;;;;;;;24.80;13.83;;;;;;;-0.54;78.47;96079.25;1737686;82;21098;-69
2022/02/26 03:06:27;;;;;;;14.60;8.27;;;;;;;-0.53;78.59;96079.70;1737866;82;21587;-68
2022/02/26 03:08:54;;;;;;;18.30;10.50;;;;;;;-0.56;78.30;96083.07;1759058;81;20975;-68
2022/02/26 03:11:20;;;;;;;20.40;11.43;;;;;;;-0.63;78.57;96082.83;1729029;83;21008;-68
2022/02/26 03:13:48;;;;;;;19.53;9.50;;;;;;;-0.67;79.26;96079.27;1728832;83;21067;-68
2022/02/26 03:16:16;;;;;;;21.17;11.07;;;;;;;-0.73;78.67;96077.76;1758896;81;21641;-68
2022/02/26 03:18:43;;;;;;;27.67;15.10;;;;;;;-0.87;79.55;96081.20;1759097;81;21004;-68
2022/02/26 03:21:09;;;;;;;22.83;10.73;;;;;;;-0.98;79.87;96086.05;1759076;81;21072;-68
2022/02/26 03:23:36;;;;;;;18.13;8.87;;;;;;;-0.95;79.86;96086.14;1759138;81;20997;-68
2022/02/26 03:26:03;;;;;;;13.10;7.30;;;;;;;-0.84;79.86;96083.89;1759071;81;21016;-68
2022/02/26 03:28:31;;;;;;;18.23;10.37;;;;;;;-0.84;79.81;96097.27;1758619;81;21108;-68
2022/02/26 03:30:58;;;;;;;17.90;8.73;;;;;;;-0.81;79.42;96095.64;1758841;81;21064;-69
2022/02/26 03:33:24;;;;;;;12.70;7.07;;;;;;;-0.84;79.40;96097.27;1759076;81;21060;-69
2022/02/26 03:35:51;;;;;;;12.47;6.97;;;;;;;-0.74;79.22;96099.33;1759060;81;20985;-68
2022/02/26 03:38:17;;;;;;;12.37;6.90;;;;;;;-0.69;79.08;96094.75;1758915;81;21028;-69
2022/02/26 03:40:44;;;;;;;11.53;6.80;;;;;;;-0.69;78.64;96096.05;1759062;81;21474;-68
2022/02/26 03:43:11;;;;;;;14.90;7.63;;;;;;;-0.76;78.51;96094.09;1758850;80;21052;-69
2022/02/26 03:45:38;;;;;;;13.23;7.00;;;;;;;-0.81;78.26;96096.06;1760205;81;21013;-69
2022/02/26 03:48:05;;;;;;;12.80;6.50;;;;;;;-0.87;78.95;96097.63;1764389;81;20980;-69
2022/02/26 03:50:32;;;;;;;14.63;7.47;;;;;;;-0.89;79.89;96107.47;1764647;80;21048;-69
2022/02/26 03:52:58;;;;;;;13.47;7.37;;;;;;;-0.90;80.39;96099.25;1764636;80;21467;-68
2022/02/26 03:55:25;;;;;;;11.67;6.03;;;;;;;-0.81;80.49;96099.95;1764678;81;21032;-68
2022/02/26 03:57:52;;;;;;;11.20;6.60;;;;;;;-0.78;79.92;96107.43;1764479;81;21013;-68
2022/02/26 04:00:19;;;;;;;10.17;5.70;;;;;;;-0.74;79.51;96103.22;1764832;81;20988;-68
2022/02/26 04:02:46;;;;;;;11.37;6.50;;;;;;;-0.75;79.71;96104.06;1764888;80;21562;-68
2022/02/26 04:05:13;;;;;;;14.33;6.77;;;;;;;-0.77;79.03;96104.42;1764848;81;20992;-68
2022/02/26 04:07:42;;;;;;;10.53;6.43;;;;;;;-0.77;79.02;96104.00;1764771;81;21019;-68
2022/02/26 04:10:11;;;;;;;10.87;6.17;;;;;;;-0.75;79.62;96111.41;1764818;81;21019;-68
2022/02/26 04:12:37;;;;;;;12.10;5.80;;;;;;;-0.73;79.17;96112.73;1764541;81;21035;-68
2022/02/26 04:15:06;;;;;;;14.80;6.87;;;;;;;-0.70;79.09;96112.45;1764782;81;20984;-69
2022/02/26 04:17:33;;;;;;;10.07;6.13;;;;;;;-0.67;79.06;96112.54;1764778;81;21099;-69
2022/02/26 04:19:59;;;;;;;15.93;6.97;;;;;;;-0.63;78.93;96110.04;1764828;81;21035;-69
2022/02/26 04:22:26;;;;;;;10.63;5.37;;;;;;;-0.61;79.00;96100.61;1764747;81;21077;-69
2022/02/26 04:24:52;;;;;;;11.40;5.70;;;;;;;-0.59;78.70;96098.53;1764903;81;20980;-69
2022/02/26 04:27:19;;;;;;;10.10;5.93;;;;;;;-0.53;78.89;96102.63;1764715;81;21047;-69
2022/02/26 04:29:45;;;;;;;10.33;5.97;;;;;;;-0.51;78.78;96088.41;1764793;81;21027;-69
2022/02/26 04:32:13;;;;;;;12.30;6.27;;;;;;;-0.41;79.27;96090.45;1764754;81;21309;-68
2022/02/26 04:34:40;;;;;;;10.73;5.53;;;;;;;-0.28;79.27;96098.20;1764753;80;21028;-69
2022/02/26 04:37:06;;;;;;;10.30;6.30;;;;;;;-0.18;78.84;96100.24;1764736;80;21175;-68
2022/02/26 04:39:33;;;;;;;11.20;5.47;;;;;;;-0.15;78.43;96094.27;1764871;81;20981;-68
2022/02/26 04:41:59;;;;;;;27.20;13.43;;;;;;;-0.22;78.00;96090.63;1764685;80;21012;-68
2022/02/26 04:44:26;;;;;;;49.17;24.33;;;;;;;-0.24;78.58;96090.56;1764783;81;20952;-68
2022/02/26 04:46:53;;;;;;;45.60;21.97;;;;;;;-0.24;78.71;96090.56;1764557;81;21035;-68
2022/02/26 04:49:19;;;;;;;66.90;29.87;;;;;;;-0.24;78.64;96085.38;1764800;81;20969;-68
2022/02/26 04:51:46;;;;;;;22.33;11.00;;;;;;;-0.30;78.16;96094.70;1764945;80;21527;-68
2022/02/26 04:54:13;;;;;;;11.23;5.87;;;;;;;-0.30;78.30;96086.50;1764622;81;20992;-69
2022/02/26 04:56:39;;;;;;;11.63;5.93;;;;;;;-0.22;78.22;96094.09;1764823;81;21071;-68
2022/02/26 04:59:06;;;;;;;10.27;5.50;;;;;;;-0.22;78.41;96095.39;1764797;80;21032;-68
2022/02/26 05:01:32;;;;;;;13.07;6.17;;;;;;;-0.26;78.25;96099.13;1764677;81;21088;-68
2022/02/26 05:03:59;;;;;;;17.73;10.10;;;;;;;-0.38;78.46;96097.02;1764877;81;20976;-69
2022/02/26 05:06:25;;;;;;;17.40;9.33;;;;;;;-0.47;78.65;96105.83;1764835;80;21011;-69
2022/02/26 05:08:52;;;;;;;55.97;27.30;;;;;;;-0.46;79.30;96103.27;1764894;81;21031;-68
2022/02/26 05:11:18;;;;;;;65.83;30.57;;;;;;;-0.42;79.56;96093.89;1764786;81;21112;-68
2022/02/26 05:13:46;;;;;;;64.17;28.70;;;;;;;-0.39;79.34;96101.77;1764387;81;20980;-68
2022/02/26 05:16:12;;;;;;;57.63;27.77;;;;;;;-0.41;79.02;96106.44;1764528;81;21044;-68
2022/02/26 05:18:39;;;;;;;19.07;9.10;;;;;;;-0.44;79.15;96117.16;1764764;80;21462;-68
2022/02/26 05:21:05;;;;;;;12.20;6.93;;;;;;;-0.55;78.59;96110.77;1764777;81;21111;-68
2022/02/26 05:23:32;;;;;;;11.80;7.00;;;;;;;-0.68;78.29;96119.86;1764790;80;20976;-68
2022/02/26 05:25:58;;;;;;;12.97;7.93;;;;;;;-0.71;79.00;96125.34;1764834;81;21084;-68
2022/02/26 05:28:25;;;;;;;14.83;9.13;;;;;;;-0.72;79.50;96140.02;1764513;81;21031;-68
2022/02/26 05:30:51;;;;;;;10.03;6.00;;;;;;;-0.73;79.52;96146.03;1764759;80;20992;-68
2022/02/26 05:33:19;;;;;;;8.07;5.07;;;;;;;-0.68;79.32;96152.25;1764753;81;20966;-68
2022/02/26 05:35:45;;;;;;;20.03;10.13;;;;;;;-0.63;78.98;96152.41;1764784;81;21100;-68
2022/02/26 05:38:12;;;;;;;35.80;16.97;;;;;;;-0.59;79.77;96159.44;1764590;80;21012;-69
2022/02/26 05:40:38;;;;;;;39.00;20.23;;;;;;;-0.57;79.49;96159.08;1764794;81;21533;-68
2022/02/26 05:43:05;;;;;;;44.80;20.93;;;;;;;-0.61;79.90;96171.45;1764680;81;21036;-69
2022/02/26 05:45:32;;;;;;;70.40;28.30;;;;;;;-0.57;80.11;96169.45;1764828;80;21076;-68
2022/02/26 05:48:00;;;;;;;67.13;27.83;;;;;;;-0.53;80.03;96172.62;1754089;81;21017;-69
2022/02/26 05:50:27;;;;;;;25.60;13.43;;;;;;;-0.57;79.62;96178.52;1753648;82;21006;-69
2022/02/26 05:52:53;;;;;;;21.27;9.23;;;;;;;-0.50;79.83;96184.80;1753657;82;21014;-68
2022/02/26 05:55:20;;;;;;;15.37;8.00;;;;;;;-0.41;80.08;96179.02;1753794;82;20973;-68
2022/02/26 05:57:47;;;;;;;22.37;11.13;;;;;;;-0.33;80.01;96181.06;1753432;82;20993;-68
2022/02/26 06:00:15;;;;;;;20.37;10.20;;;;;;;-0.29;79.64;96188.50;1753684;82;21033;-68
2022/02/26 06:02:41;;;;;;;24.17;11.37;;;;;;;-0.30;79.66;96188.05;1753800;82;21033;-68
2022/02/26 06:05:08;;;;;;;22.00;11.20;;;;;;;-0.33;79.76;96191.81;1753784;82;21475;-68
2022/02/26 06:07:35;;;;;;;18.07;10.37;;;;;;;-0.24;79.62;96198.19;1753709;82;21029;-68
2022/02/26 06:10:03;;;;;;;16.60;9.13;;;;;;;-0.15;79.90;96189.84;1753890;82;21486;-68
2022/02/26 06:12:30;;;;;;;16.87;8.53;;;;;;;-0.05;79.66;96202.66;1753767;82;20970;-68
2022/02/26 06:14:57;;;;;;;18.40;9.60;;;;;;;-0.02;79.37;96191.11;1753579;82;21018;-69
2022/02/26 06:17:24;;;;;;;21.30;12.00;;;;;;;0.04;79.36;96193.88;1753750;82;21002;-69
2022/02/26 06:19:50;;;;;;;21.10;10.87;;;;;;;0.09;79.44;96192.31;1753578;82;20986;-68
2022/02/26 06:22:17;;;;;;;19.33;11.47;;;;;;;0.17;79.17;96192.13;1753697;82;20965;-68
2022/02/26 06:24:43;;;;;;;17.43;9.90;;;;;;;0.23;78.98;96194.45;1753757;82;21057;-68
2022/02/26 06:27:10;;;;;;;21.93;12.10;;;;;;;0.28;78.83;96204.55;1753629;82;20986;-69
2022/02/26 06:29:37;;;;;;;17.93;10.13;;;;;;;0.34;78.57;96209.52;1753541;82;21009;-69
2022/02/26 06:32:05;;;;;;;22.73;11.47;;;;;;;0.43;78.08;96220.20;1753712;81;21464;-69
2022/02/26 06:34:33;;;;;;;31.33;14.97;;;;;;;0.48;77.52;96229.43;1753652;82;21021;-69
2022/02/26 06:37:00;;;;;;;24.53;11.53;;;;;;;0.51;77.37;96231.23;1753664;82;21010;-69
2022/02/26 06:39:26;;;;;;;18.17;9.87;;;;;;;0.57;77.37;96232.28;1753488;82;21033;-69
2022/02/26 06:41:53;;;;;;;18.70;10.50;;;;;;;0.66;76.72;96229.52;1753679;82;21036;-69
2022/02/26 06:44:19;;;;;;;25.40;13.50;;;;;;;0.70;76.63;96231.35;1753609;82;21503;-66
2022/02/26 06:46:47;;;;;;;20.90;11.10;;;;;;;0.75;76.86;96241.03;1752736;81;21053;-66
2022/02/26 06:49:15;;;;;;;19.43;12.23;;;;;;;0.78;76.59;96239.85;1738140;82;21019;-66
2022/02/26 06:51:42;;;;;;;20.07;11.90;;;;;;;0.84;76.56;96247.81;1738070;82;21516;-66
2022/02/26 06:54:09;;;;;;;18.57;11.53;;;;;;;0.88;75.99;96248.77;1737987;82;21019;-66
2022/02/26 06:56:36;;;;;;;18.60;12.40;;;;;;;0.93;75.79;96251.51;1738034;82;21034;-66
2022/02/26 06:59:02;;;;;;;18.43;12.10;;;;;;;0.93;75.85;96255.41;1737949;82;21022;-66
2022/02/26 07:01:29;;;;;;;13.97;9.20;;;;;;;1.00;75.54;96257.34;1737765;82;21069;-66
2022/02/26 07:03:55;;;;;;;14.87;9.73;;;;;;;0.99;74.62;96260.80;1738212;82;20991;-66
2022/02/26 07:06:22;;;;;;;18.07;9.97;;;;;;;0.96;74.57;96266.78;1738039;82;21015;-66
2022/02/26 07:08:49;;;;;;;12.97;8.93;;;;;;;0.99;74.57;96264.70;1738130;82;20990;-66
2022/02/26 07:11:15;;;;;;;13.50;8.23;;;;;;;1.04;74.66;96269.17;1717269;82;21014;-66
2022/02/26 07:13:42;;;;;;;12.37;6.60;;;;;;;1.07;74.64;96270.56;1738070;82;21444;-66
2022/02/26 07:16:08;;;;;;;11.70;6.87;;;;;;;1.07;74.50;96274.88;1738046;82;21061;-67
2022/02/26 07:18:35;;;;;;;12.50;7.70;;;;;;;1.05;74.72;96276.55;1738127;82;21058;-66
2022/02/26 07:21:01;;;;;;;10.07;6.23;;;;;;;1.10;74.28;96277.56;1738031;82;21062;-66
2022/02/26 07:23:28;;;;;;;14.20;7.13;;;;;;;1.20;74.17;96283.91;1738091;82;21030;-66
2022/02/26 07:25:55;;;;;;;11.20;7.13;;;;;;;1.24;74.20;96280.15;1738028;82;21023;-66
2022/02/26 07:28:22;;;;;;;10.67;7.00;;;;;;;1.25;73.64;96283.20;1738041;82;21015;-66
2022/02/26 07:30:52;;;;;;;14.77;10.17;;;;;;;1.28;73.24;96286.30;1738019;82;21042;-66
2022/02/26 07:33:16;;;;;;;13.50;6.93;;;;;;;1.28;73.46;96287.59;1738241;82;21540;-66
2022/02/26 07:35:43;;;;;;;11.03;7.03;;;;;;;1.28;73.58;96288.90;1738118;82;21026;-66
2022/02/26 07:38:10;;;;;;;11.77;6.77;;;;;;;1.26;73.25;96291.48;1738238;82;21011;-66
2022/02/26 07:40:41;;;;;;;11.00;7.20;;;;;;;1.28;73.36;96291.08;1738305;82;21038;-66
2022/02/26 07:43:05;;;;;;;11.40;7.70;;;;;;;1.26;73.15;96287.58;1737997;82;20991;-67
2022/02/26 07:45:31;;;;;;;11.93;8.07;;;;;;;1.23;73.47;96297.86;1738019;82;21489;-66
2022/02/26 07:47:58;;;;;;;9.50;6.43;;;;;;;1.22;73.65;96293.94;1738150;82;21035;-66
2022/02/26 07:50:25;;;;;;;9.43;6.30;;;;;;;1.15;73.88;96300.67;1738201;82;21020;-67
2022/02/26 07:52:51;;;;;;;10.23;7.60;;;;;;;1.20;73.93;96301.68;1761780;81;21037;-66
2022/02/26 07:55:18;;;;;;;9.27;6.47;;;;;;;1.24;73.78;96304.84;1761614;81;21057;-66
2022/02/26 07:57:44;;;;;;;12.37;7.13;;;;;;;1.23;73.94;96299.59;1761683;81;21000;-66
2022/02/26 08:00:12;;;;;;;12.23;7.70;;;;;;;1.33;74.01;96308.11;1761736;81;21053;-66
2022/02/26 08:02:39;;;;;;;14.60;7.10;;;;;;;1.47;74.01;96302.89;1761846;81;21440;-67
2022/02/26 08:05:07;;;;;;;13.37;8.13;;;;;;;1.50;73.89;96306.86;1761637;81;20997;-67
2022/02/26 08:07:33;;;;;;;16.90;10.00;;;;;;;1.53;73.78;96309.97;1761769;81;20993;-66
2022/02/26 08:10:00;;;;;;;16.83;8.97;;;;;;;1.57;73.87;96312.25;1761646;81;21017;-66
2022/02/26 08:12:27;;;;;;;14.87;8.83;;;;;;;1.62;74.27;96311.96;1761679;81;20989;-66
2022/02/26 08:14:53;;;;;;;22.93;13.50;;;;;;;1.68;74.10;96316.02;1761673;81;20989;-66
2022/02/26 08:17:20;;;;;;;14.13;8.60;;;;;;;1.74;74.20;96324.00;1761638;81;20985;-66
2022/02/26 08:19:46;;;;;;;14.00;7.93;;;;;;;1.69;74.17;96326.48;1761690;81;21559;-66
2022/02/26 08:22:13;;;;;;;10.93;7.63;;;;;;;1.70;73.85;96321.72;1761408;81;21064;-66
2022/02/26 08:24:40;;;;;;;18.17;11.03;;;;;;;1.71;73.81;96326.50;1761465;81;21104;-66
2022/02/26 08:27:06;;;;;;;17.73;10.97;;;;;;;1.74;73.92;96330.52;1761748;81;21512;-66
2022/02/26 08:29:33;;;;;;;16.33;10.03;;;;;;;1.80;73.97;96333.27;1761447;81;21075;-66
2022/02/26 08:32:00;;;;;;;13.70;9.90;;;;;;;1.78;73.84;96333.64;1761696;81;21025;-67
2022/02/26 08:34:26;;;;;;;16.60;10.67;;;;;;;1.79;73.83;96334.52;1761813;81;21543;-67
2022/02/26 08:36:53;;;;;;;14.13;11.20;;;;;;;1.80;73.61;96338.89;1761608;81;21020;-67
2022/02/26 08:39:20;;;;;;;15.40;10.57;;;;;;;1.86;73.70;96337.74;1761661;81;21077;-67
2022/02/26 08:41:46;;;;;;;13.77;10.10;;;;;;;1.88;73.58;96338.24;1761661;81;21025;-67
2022/02/26 08:44:13;;;;;;;11.00;8.13;;;;;;;1.92;73.40;96340.53;1761651;81;21472;-67
2022/02/26 08:46:39;;;;;;;12.97;8.87;;;;;;;1.95;73.11;96339.30;1760954;81;20989;-67
2022/02/26 08:49:06;;;;;;;15.03;9.57;;;;;;;2.01;73.28;96342.05;1751201;82;21018;-67
2022/02/26 08:51:33;;;;;;;11.10;8.17;;;;;;;2.11;73.40;96347.95;1751084;82;21009;-67
2022/02/26 08:53:59;;;;;;;12.20;7.97;;;;;;;2.14;73.64;96343.25;1751011;81;21496;-66
2022/02/26 08:56:26;;;;;;;16.00;10.20;;;;;;;2.16;74.07;96341.14;1751256;82;21479;-66
2022/02/26 08:58:54;;;;;;;13.43;9.87;;;;;;;2.14;74.02;96348.06;1751005;81;21032;-67
2022/02/26 09:01:21;;;;;;;15.93;10.27;;;;;;;2.15;74.26;96349.81;1751029;82;20998;-66
2022/02/26 09:03:48;;;;;;;14.57;10.70;;;;;;;2.18;75.25;96355.95;1751013;82;21527;-66
2022/02/26 09:06:14;;;;;;;15.37;10.20;;;;;;;2.21;75.02;96350.38;1751086;82;21010;-66
2022/02/26 09:08:41;;;;;;;15.77;10.57;;;;;;;2.26;74.64;96354.41;1751060;81;21040;-66
2022/02/26 09:11:08;;;;;;;14.27;10.07;;;;;;;2.21;75.33;96363.41;1751100;82;20994;-66
2022/02/26 09:13:37;;;;;;;15.40;9.90;;;;;;;2.21;75.05;96360.80;1751079;82;21563;-66
2022/02/26 09:16:06;;;;;;;13.97;10.03;;;;;;;2.22;75.46;96368.19;1750965;81;21484;-66
2022/02/26 09:18:33;;;;;;;13.80;10.07;;;;;;;2.25;76.19;96363.08;1751069;82;21516;-66
2022/02/26 09:21:01;;;;;;;13.47;10.37;;;;;;;2.26;75.19;96359.19;1750841;82;21001;-67
2022/02/26 09:23:28;;;;;;;16.90;12.20;;;;;;;2.32;75.56;96363.70;1751551;81;21504;-66
2022/02/26 09:25:55;;;;;;;13.60;9.63;;;;;;;2.43;75.65;96369.17;1751157;82;20986;-67
2022/02/26 09:28:22;;;;;;;12.00;9.43;;;;;;;2.42;76.14;96368.30;1750871;82;21480;-66
2022/02/26 09:30:49;;;;;;;11.70;8.60;;;;;;;2.49;75.60;96371.48;1750952;82;20954;-66
2022/02/26 09:33:15;;;;;;;15.07;9.83;;;;;;;2.55;75.19;96366.88;1751145;82;21014;-66
2022/02/26 09:35:42;;;;;;;17.63;10.20;;;;;;;2.60;75.48;96360.06;1751070;82;21048;-66
2022/02/26 09:38:09;;;;;;;10.73;8.23;;;;;;;2.65;75.05;96367.56;1751054;81;21045;-66
2022/02/26 09:40:37;;;;;;;18.07;11.47;;;;;;;2.66;75.21;96360.19;1751168;82;20998;-66
2022/02/26 09:43:04;;;;;;;12.40;9.47;;;;;;;2.67;74.84;96364.97;1750902;82;21018;-66
2022/02/26 09:45:31;;;;;;;15.57;10.60;;;;;;;2.72;74.82;96359.05;1750946;82;20982;-66
2022/02/26 09:47:58;;;;;;;26.33;15.50;;;;;;;2.63;74.65;96361.86;1751914;81;21014;-66
2022/02/26 09:50:24;;;;;;;19.93;11.93;;;;;;;2.68;74.68;96368.06;1753727;82;21013;-66
2022/02/26 09:52:53;;;;;;;21.57;13.57;;;;;;;2.66;75.01;96368.44;1753804;82;21010;-66
2022/02/26 09:55:19;;;;;;;16.20;11.53;;;;;;;2.71;75.13;96369.43;1753681;82;21006;-67
2022/02/26 09:57:46;;;;;;;16.13;10.80;;;;;;;2.76;75.00;96371.30;1757271;82;21017;-66
2022/02/26 10:00:14;;;;;;;14.40;9.77;;;;;;;2.74;74.90;96370.37;1753717;81;21036;-66
2022/02/26 10:02:42;;;;;;;14.50;10.40;;;;;;;2.70;74.32;96372.47;1753822;82;21006;-67
2022/02/26 10:05:11;;;;;;;17.83;10.60;;;;;;;2.71;74.85;96370.30;1732601;82;21041;-66
2022/02/26 10:07:39;;;;;;;15.73;10.90;;;;;;;2.75;75.21;96371.27;1753696;82;21021;-66
2022/02/26 10:10:19;;;;;;;15.40;11.00;;;;;;;2.71;76.23;96374.21;1753493;82;21025;-66
2022/02/26 10:12:53;;;;;;;13.10;9.93;;;;;;;2.79;75.95;96375.70;1753565;82;21085;-66
2022/02/26 10:15:30;;;;;;;13.43;10.17;;;;;;;2.93;75.77;96377.34;1752807;82;21001;-66
2022/02/26 10:18:12;;;;;;;12.93;8.70;;;;;;;2.99;75.82;96379.65;1753642;82;21086;-66
2022/02/26 10:20:54;;;;;;;12.47;8.67;;;;;;;3.03;74.71;96378.02;1753710;82;21032;-66
2022/02/26 10:23:19;;;;;;;13.60;9.23;;;;;;;3.07;75.04;96387.65;1753591;82;21085;-66
2022/02/26 10:25:46;;;;;;;16.40;10.40;;;;;;;3.12;74.82;96383.84;1753600;82;20973;-66
2022/02/26 10:28:15;;;;;;;13.57;9.50;;;;;;;3.17;74.45;96384.41;1753649;82;21100;-66
2022/02/26 10:30:49;;;;;;;14.33;9.73;;;;;;;3.16;74.18;96388.30;1753454;82;21045;-67
2022/02/26 10:33:23;;;;;;;17.10;11.20;;;;;;;3.11;73.45;96385.58;1753484;82;21069;-66
2022/02/26 10:36:03;;;;;;;13.50;9.43;;;;;;;3.09;73.62;96390.30;1753879;82;21018;-66
2022/02/26 10:38:32;;;;;;;15.03;9.63;;;;;;;2.99;73.95;96390.08;1753451;82;21037;-66
2022/02/26 10:41:07;;;;;;;15.17;9.43;;;;;;;2.90;74.75;96388.58;1753712;82;20989;-66
2022/02/26 10:43:46;;;;;;;22.93;13.50;;;;;;;2.81;74.49;96393.56;1753680;82;21062;-66
2022/02/26 10:46:29;;;;;;;20.40;13.00;;;;;;;2.83;74.45;96393.19;1753568;81;21460;-66
2022/02/26 10:49:08;;;;;;;16.12;10.93;;;;;;;2.77;74.91;96391.31;1752444;81;21065;-66
2022/02/26 10:51:38;;;;;;;19.40;11.33;;;;;;;2.78;75.02;96391.77;1751131;82;20990;-66
2022/02/26 10:54:09;;;;;;;18.13;11.43;;;;;;;2.73;75.92;96391.20;1750911;82;21053;-66
2022/02/26 10:56:39;;;;;;;24.80;15.47;;;;;;;2.79;75.35;96389.60;1751460;82;21459;-66
2022/02/26 10:59:09;;;;;;;28.23;16.60;;;;;;;2.82;75.34;96391.41;1750911;82;21014;-66
2022/02/26 11:01:36;;;;;;;21.63;11.70;;;;;;;2.86;75.63;96394.55;1750901;81;21069;-66
2022/02/26 11:04:04;;;;;;;14.43;10.67;;;;;;;2.87;74.58;96390.21;1750998;81;21073;-66
2022/02/26 11:06:33;;;;;;;17.13;10.30;;;;;;;2.95;74.64;96389.57;1750885;82;21021;-66
2022/02/26 11:09:00;;;;;;;19.47;12.13;;;;;;;3.02;74.30;96384.05;1751051;81;21548;-66
2022/02/26 11:11:27;;;;;;;17.67;12.50;;;;;;;2.95;73.78;96382.17;1750950;82;21089;-66
2022/02/26 11:13:56;;;;;;;18.50;12.20;;;;;;;2.99;74.16;96378.34;1750857;81;20994;-66
2022/02/26 11:16:24;;;;;;;15.90;10.63;;;;;;;3.09;74.93;96375.53;1750971;81;21006;-66
2022/02/26 11:18:55;;;;;;;18.07;11.60;;;;;;;3.16;74.97;96373.95;1751066;81;21504;-66
2022/02/26 11:21:22;;;;;;;21.40;12.87;;;;;;;3.25;74.65;96376.35;1721544;82;20997;-66
2022/02/26 11:23:51;;;;;;;16.23;11.77;;;;;;;3.20;74.71;96374.06;1750962;82;21046;-66
2022/02/26 11:26:21;;;;;;;17.80;12.17;;;;;;;3.28;74.69;96374.66;1751020;82;20958;-66
2022/02/26 11:28:51;;;;;;;22.03;12.80;;;;;;;3.31;74.62;96371.69;1750857;82;20998;-66
2022/02/26 11:31:26;;;;;;;21.13;13.43;;;;;;;3.34;74.41;96373.48;1750886;82;21010;-66